Time;durP1;ratioP1;P1;durP2;ratioP2;P2;SDS_P1;SDS_P2;PMS_P1;PMS_P2;Temp;Humidity;BMP_temperature;BMP_pressure;BME280_temperature;BME280_humidity;BME280_pressure;Samples;Min_cycle;Max_cycle;Signal;HPM_P1;HPM_P2
2023/01/30 00:02:03;;;;;;;4.35;2.08;;;25.70;54.90;;;;;;4914815;29;20228;-50
2023/01/30 00:04:36;;;;;;;7.30;2.33;;;25.80;54.90;;;;;;4914963;29;20208;-48
2023/01/30 00:07:06;;;;;;;5.35;2.20;;;25.80;54.90;;;;;;4914140;29;20980;-51
2023/01/30 00:09:37;;;;;;;3.28;1.77;;;25.80;54.80;;;;;;4914894;29;20204;-52
2023/01/30 00:12:08;;;;;;;3.97;1.90;;;25.80;54.70;;;;;;4914774;29;20196;-53
2023/01/30 00:14:39;;;;;;;4.88;2.20;;;25.80;54.70;;;;;;4914906;29;20214;-52
2023/01/30 00:17:09;;;;;;;4.60;1.98;;;25.90;54.80;;;;;;4915412;29;20694;-51
2023/01/30 00:19:42;;;;;;;4.60;2.00;;;25.90;54.80;;;;;;4915210;29;20219;-55
2023/01/30 00:22:13;;;;;;;3.80;1.75;;;25.90;54.80;;;;;;4914311;29;20728;-49
2023/01/30 00:24:43;;;;;;;3.60;2.05;;;25.90;54.60;;;;;;4914935;29;20565;-56
2023/01/30 00:27:14;;;;;;;5.15;1.60;;;25.90;54.60;;;;;;4914952;29;20743;-53
2023/01/30 00:29:45;;;;;;;3.25;1.63;;;26.00;54.60;;;;;;4914241;29;20200;-54
2023/01/30 00:32:16;;;;;;;5.70;1.98;;;26.00;54.50;;;;;;4914797;29;20712;-53
2023/01/30 00:34:48;;;;;;;4.97;2.20;;;26.00;54.50;;;;;;4915267;29;20230;-54
2023/01/30 00:37:19;;;;;;;3.70;1.55;;;26.00;54.40;;;;;;4915069;29;20657;-52
2023/01/30 00:39:50;;;;;;;2.60;1.42;;;26.00;54.30;;;;;;4914739;29;20196;-55
2023/01/30 00:47:54;;;;;;;1.90;1.30;;;26.10;54.20;;;;;;4915573;29;20648;-54
2023/01/30 00:50:41;;;;;;;2.92;1.65;;;26.10;54.20;;;;;;4914507;29;20211;-52
2023/01/30 00:53:12;;;;;;;2.40;1.40;;;26.10;54.20;;;;;;4914742;29;20298;-52
2023/01/30 00:55:44;;;;;;;3.42;1.42;;;26.10;54.10;;;;;;4913306;29;20200;-50
2023/01/30 00:58:15;;;;;;;2.35;1.35;;;26.10;54.20;;;;;;4921674;29;20679;-56
2023/01/30 01:00:45;;;;;;;1.55;1.10;;;26.10;54.10;;;;;;4933574;29;20207;-51
2023/01/30 01:03:16;;;;;;;2.33;1.30;;;26.20;54.20;;;;;;4913596;29;20696;-53
2023/01/30 01:05:50;;;;;;;3.63;1.75;;;26.20;54.20;;;;;;4914137;29;20219;-53
2023/01/30 01:08:21;;;;;;;2.65;1.30;;;26.20;54.30;;;;;;4914109;29;20723;-49
2023/01/30 01:10:52;;;;;;;2.80;1.50;;;26.20;54.30;;;;;;4914551;29;20314;-54
2023/01/30 01:13:22;;;;;;;1.42;1.23;;;26.20;54.20;;;;;;4914333;29;20200;-50
2023/01/30 01:15:53;;;;;;;2.58;1.20;;;26.20;54.10;;;;;;4914179;29;20208;-56
2023/01/30 01:18:24;;;;;;;3.13;1.27;;;26.20;54.10;;;;;;4913486;29;20220;-50
2023/01/30 01:20:56;;;;;;;3.33;1.45;;;26.30;54.10;;;;;;4914010;29;20204;-51
2023/01/30 01:23:27;;;;;;;2.13;1.25;;;26.30;54.10;;;;;;4913186;29;20781;-54
2023/01/30 01:25:58;;;;;;;1.92;1.42;;;26.30;54.10;;;;;;4914298;29;20208;-57
2023/01/30 01:28:28;;;;;;;2.58;1.10;;;26.30;54.10;;;;;;4913485;29;20220;-52
2023/01/30 01:30:59;;;;;;;2.28;1.30;;;26.40;54.20;;;;;;4913576;29;20814;-54
2023/01/30 01:33:30;;;;;;;4.13;1.20;;;26.40;54.10;;;;;;4913326;29;20196;-51
2023/01/30 01:36:03;;;;;;;2.83;1.38;;;26.40;54.10;;;;;;4913920;29;20579;-53
2023/01/30 01:38:33;;;;;;;2.55;1.30;;;26.40;54.10;;;;;;4913972;29;20220;-51
2023/01/30 01:41:04;;;;;;;1.70;1.00;;;26.40;54.20;;;;;;4914256;29;20200;-51
2023/01/30 01:43:37;;;;;;;3.25;1.15;;;26.40;54.10;;;;;;4917359;29;20559;-52
2023/01/30 01:46:14;;;;;;;2.63;1.20;;;26.40;54.20;;;;;;4918028;29;20676;-53
2023/01/30 01:48:50;;;;;;;3.38;1.23;;;26.50;54.20;;;;;;4918769;29;20215;-53
2023/01/30 01:51:29;;;;;;;2.20;1.30;;;26.50;54.20;;;;;;4917784;29;20204;-54
2023/01/30 01:54:04;;;;;;;2.63;1.42;;;26.50;54.20;;;;;;4916556;29;20200;-49
2023/01/30 01:56:36;;;;;;;3.72;1.10;;;26.50;54.20;;;;;;4917220;29;20210;-47
2023/01/30 01:59:09;;;;;;;4.03;1.20;;;26.60;54.20;;;;;;4925285;29;20219;-47
2023/01/30 02:01:40;;;;;;;2.35;1.30;;;26.60;54.30;;;;;;4924141;29;20203;-48
2023/01/30 02:05:00;;;;;;;2.75;1.20;;;26.60;54.30;;;;;;4928967;29;20667;-52
2023/01/30 02:07:06;;;;;;;2.50;1.30;;;26.60;54.30;;;;;;4935937;29;20211;-49
2023/01/30 02:09:42;;;;;;;2.92;1.30;;;26.70;54.40;;;;;;4935990;29;20202;-51
2023/01/30 02:12:15;;;;;;;1.40;1.17;;;26.70;54.30;;;;;;4936760;29;20203;-51
2023/01/30 02:14:47;;;;;;;1.77;1.23;;;26.70;54.30;;;;;;4904882;29;20197;-50
2023/01/30 02:17:17;;;;;;;3.30;1.33;;;26.80;54.30;;;;;;4917528;29;20204;-50
2023/01/30 02:19:54;;;;;;;1.70;1.15;;;26.80;54.30;;;;;;4917042;29;20216;-53
2023/01/30 02:23:04;;;;;;;1.63;1.00;;;26.90;54.40;;;;;;4916282;29;20231;-53
2023/01/30 02:26:01;;;;;;;4.30;1.50;;;26.90;54.40;;;;;;4916889;29;20204;-52
2023/01/30 02:29:12;;;;;;;1.92;1.23;;;27.00;54.40;;;;;;4917007;29;20219;-48
2023/01/30 02:31:50;;;;;;;2.92;1.10;;;27.00;54.30;;;;;;4857125;29;20225;-50
2023/01/30 02:34:40;;;;;;;3.50;1.23;;;27.10;54.30;;;;;;4858115;29;20634;-49
2023/01/30 02:37:22;;;;;;;2.67;1.58;;;27.10;54.30;;;;;;4900973;29;20201;-47
2023/01/30 02:40:11;;;;;;;3.38;1.52;;;27.10;54.30;;;;;;4917269;29;20200;-47
2023/01/30 02:42:49;;;;;;;2.55;1.40;;;27.10;54.20;;;;;;4917156;29;20223;-49
2023/01/30 02:45:25;;;;;;;4.30;1.90;;;27.20;54.30;;;;;;4917543;29;20199;-50
2023/01/30 02:48:02;;;;;;;3.22;1.70;;;27.20;54.20;;;;;;4939830;23;20231;-55
2023/01/30 02:50:38;;;;;;;3.75;2.03;;;27.20;54.20;;;;;;4936361;29;20199;-54
2023/01/30 02:53:09;;;;;;;3.00;1.98;;;27.30;54.30;;;;;;4935119;29;20195;-56
2023/01/30 02:55:43;;;;;;;4.68;2.25;;;27.40;54.30;;;;;;4935986;29;20199;-56
2023/01/30 02:58:14;;;;;;;2.45;1.88;;;27.30;54.10;;;;;;4936390;29;20688;-51
2023/01/30 03:01:02;;;;;;;3.50;1.88;;;27.40;54.20;;;;;;4935593;29;20199;-56
2023/01/30 03:03:52;;;;;;;3.72;2.33;;;27.40;54.10;;;;;;4935733;29;20330;-57
2023/01/30 03:06:43;;;;;;;3.95;2.10;;;27.40;54.20;;;;;;4935405;29;20207;-56
2023/01/30 03:09:23;;;;;;;5.15;2.50;;;27.40;54.20;;;;;;4935509;29;20619;-56
2023/01/30 03:12:05;;;;;;;2.80;2.08;;;27.50;54.20;;;;;;4935768;29;20203;-56
2023/01/30 03:14:42;;;;;;;4.22;2.15;;;27.50;54.10;;;;;;4935940;29;20196;-55
2023/01/30 03:17:14;;;;;;;4.97;2.30;;;27.50;54.80;;;;;;4916807;29;20204;-55
2023/01/30 03:19:48;;;;;;;3.33;2.10;;;27.50;54.20;;;;;;4916316;29;20231;-56
2023/01/30 03:22:18;;;;;;;3.63;2.03;;;27.60;54.20;;;;;;4929305;29;20204;-56
2023/01/30 03:24:49;;;;;;;3.97;2.15;;;27.50;54.20;;;;;;4934404;29;20211;-56
2023/01/30 03:27:21;;;;;;;4.95;2.17;;;27.60;54.20;;;;;;4925877;29;20206;-55
2023/01/30 03:29:51;;;;;;;3.15;1.90;;;27.60;54.10;;;;;;4934209;29;20207;-56
2023/01/30 03:32:22;;;;;;;3.08;2.42;;;27.60;54.10;;;;;;4934458;29;20207;-56
2023/01/30 03:34:54;;;;;;;3.47;1.90;;;27.60;54.10;;;;;;4935355;29;20204;-53
2023/01/30 03:37:25;;;;;;;4.07;2.22;;;27.60;54.10;;;;;;4915178;29;20203;-54
2023/01/30 03:39:56;;;;;;;4.05;2.38;;;27.60;54.10;;;;;;4929042;29;20223;-55
2023/01/30 03:42:27;;;;;;;3.53;2.40;;;27.60;54.10;;;;;;4934325;29;20199;-55
2023/01/30 03:44:57;;;;;;;2.65;2.00;;;27.60;54.10;;;;;;4935391;29;20207;-55
2023/01/30 03:47:28;;;;;;;5.75;2.42;;;27.60;54.20;;;;;;4939246;23;20224;-51
2023/01/30 03:50:01;;;;;;;4.78;2.17;;;27.60;54.20;;;;;;4914832;29;20239;-53
2023/01/30 03:52:31;;;;;;;2.83;2.20;;;27.60;54.30;;;;;;4895839;29;20205;-51
2023/01/30 03:55:02;;;;;;;3.75;2.35;;;27.60;54.40;;;;;;4912530;29;20591;-50
2023/01/30 03:57:33;;;;;;;3.22;2.08;;;27.60;54.40;;;;;;4896731;29;20224;-47
2023/01/30 04:00:03;;;;;;;4.10;2.15;;;27.60;54.50;;;;;;4896302;29;20205;-51
2023/01/30 04:02:34;;;;;;;3.42;1.90;;;27.60;54.40;;;;;;4934102;29;20206;-52
2023/01/30 04:05:07;;;;;;;3.97;1.77;;;27.70;54.50;;;;;;4933837;29;20195;-53
2023/01/30 04:07:38;;;;;;;3.38;2.10;;;27.70;54.50;;;;;;4896428;29;20224;-50
2023/01/30 04:10:09;;;;;;;4.95;2.10;;;27.70;54.50;;;;;;4896548;29;20201;-51
2023/01/30 04:12:40;;;;;;;3.55;1.95;;;27.70;54.40;;;;;;4896647;29;20208;-51
2023/01/30 04:15:11;;;;;;;2.78;2.08;;;27.70;54.40;;;;;;4897077;29;20588;-54
2023/01/30 04:17:42;;;;;;;3.95;2.35;;;27.70;54.40;;;;;;4895715;29;20231;-51
2023/01/30 04:20:15;;;;;;;5.75;2.00;;;27.80;54.40;;;;;;4899249;29;20192;-51
2023/01/30 04:22:45;;;;;;;3.58;1.77;;;27.80;55.00;;;;;;4912338;29;20200;-51
2023/01/30 04:25:16;;;;;;;3.65;1.90;;;27.80;54.40;;;;;;4914358;29;20200;-53
2023/01/30 04:27:47;;;;;;;4.32;2.00;;;27.80;54.40;;;;;;4895715;29;20233;-53
2023/01/30 04:30:18;;;;;;;3.45;1.83;;;27.80;54.40;;;;;;4911397;29;20204;-54
2023/01/30 04:32:48;;;;;;;3.30;1.70;;;27.80;54.30;;;;;;4933976;29;20207;-56
2023/01/30 04:35:21;;;;;;;4.78;2.38;;;27.80;54.30;;;;;;4925002;29;20248;-54
2023/01/30 04:37:51;;;;;;;4.20;2.13;;;27.80;54.30;;;;;;4895780;29;20272;-51
2023/01/30 04:40:22;;;;;;;6.43;2.60;;;27.80;54.30;;;;;;4895711;29;20205;-52
2023/01/30 04:42:53;;;;;;;5.22;2.35;;;27.80;54.20;;;;;;4895161;29;20265;-54
2023/01/30 04:45:23;;;;;;;3.72;2.30;;;27.80;54.20;;;;;;4901509;29;20208;-53
2023/01/30 04:47:54;;;;;;;3.78;2.05;;;27.80;54.20;;;;;;4895577;29;20229;-52
2023/01/30 04:50:26;;;;;;;6.38;2.17;;;27.80;54.20;;;;;;4895398;29;20203;-51
2023/01/30 04:52:57;;;;;;;5.95;2.20;;;27.80;54.20;;;;;;4894952;29;20212;-50
2023/01/30 04:55:28;;;;;;;4.65;2.15;;;27.80;54.30;;;;;;4894976;29;20252;-56
2023/01/30 04:57:58;;;;;;;8.13;2.05;;;27.70;54.20;;;;;;4895164;29;20224;-51
2023/01/30 05:00:29;;;;;;;3.97;1.90;;;27.70;54.20;;;;;;4895130;29;20197;-49
2023/01/30 05:03:00;;;;;;;4.65;1.58;;;27.70;54.20;;;;;;4895402;29;20258;-51
2023/01/30 05:05:33;;;;;;;5.68;2.20;;;27.70;54.30;;;;;;4895128;29;20208;-50
2023/01/30 05:08:03;;;;;;;2.83;2.00;;;27.70;54.90;;;;;;4895105;29;20228;-50
2023/01/30 05:10:34;;;;;;;2.97;1.65;;;27.60;54.30;;;;;;4895235;29;20323;-53
2023/01/30 05:13:08;;;;;;;2.60;1.65;;;27.60;54.30;;;;;;4933260;29;20262;-50
2023/01/30 05:15:40;;;;;;;3.67;1.88;;;27.60;54.30;;;;;;4919126;29;20253;-49
2023/01/30 05:18:11;;;;;;;3.67;1.80;;;27.60;54.30;;;;;;4913745;29;20260;-52
2023/01/30 05:20:43;;;;;;;3.38;1.67;;;27.60;54.30;;;;;;4914847;29;20200;-51
2023/01/30 05:23:14;;;;;;;3.45;1.88;;;27.60;54.30;;;;;;4913498;29;20302;-51
2023/01/30 05:25:45;;;;;;;2.60;1.73;;;27.60;55.00;;;;;;4914196;29;20200;-48
2023/01/30 05:28:15;;;;;;;4.47;1.83;;;27.60;54.30;;;;;;4913072;29;20632;-52
2023/01/30 05:30:46;;;;;;;2.40;1.75;;;27.60;54.40;;;;;;4914650;29;20255;-50
2023/01/30 05:33:24;;;;;;;2.72;1.60;;;27.60;54.30;;;;;;4913678;29;20255;-49
2023/01/30 05:35:57;;;;;;;5.50;1.85;;;27.60;54.30;;;;;;4914520;29;20665;-46
2023/01/30 05:38:28;;;;;;;3.00;1.70;;;27.60;54.20;;;;;;4914279;29;20232;-52
2023/01/30 05:41:02;;;;;;;2.53;1.70;;;27.50;54.20;;;;;;4913874;29;20216;-51
2023/01/30 05:43:33;;;;;;;2.85;1.67;;;27.50;54.20;;;;;;4914640;29;20704;-58
2023/01/30 05:46:04;;;;;;;5.28;2.08;;;27.60;54.20;;;;;;4914238;29;20200;-51
2023/01/30 05:48:35;;;;;;;4.85;2.05;;;27.60;54.20;;;;;;4914219;29;20292;-52
2023/01/30 05:51:08;;;;;;;5.47;1.98;;;27.50;54.10;;;;;;4914180;29;20196;-51
2023/01/30 05:53:38;;;;;;;4.38;1.90;;;27.50;54.10;;;;;;4914481;29;20208;-52
2023/01/30 05:56:10;;;;;;;6.50;1.92;;;27.50;54.10;;;;;;4913764;29;20197;-50
2023/01/30 05:58:41;;;;;;;4.53;1.75;;;27.50;54.20;;;;;;4914331;29;20258;-52
2023/01/30 06:01:14;;;;;;;4.32;2.40;;;27.50;54.20;;;;;;4914185;29;20212;-49
2023/01/30 06:03:44;;;;;;;4.00;2.22;;;27.50;54.20;;;;;;4913495;29;20560;-52
2023/01/30 06:06:17;;;;;;;7.55;2.33;;;27.40;54.20;;;;;;4914289;29;20204;-53
2023/01/30 06:08:48;;;;;;;5.70;2.42;;;27.40;54.10;;;;;;4923165;29;20215;-51
2023/01/30 06:11:19;;;;;;;4.65;1.98;;;27.40;54.10;;;;;;4932902;29;20672;-48
2023/01/30 06:13:50;;;;;;;6.25;2.28;;;27.40;54.20;;;;;;4923842;29;20237;-52
2023/01/30 06:16:22;;;;;;;4.90;2.20;;;27.40;54.20;;;;;;4914223;29;20680;-52
2023/01/30 06:18:52;;;;;;;5.00;2.10;;;27.40;54.20;;;;;;4913783;29;20221;-51
2023/01/30 06:21:25;;;;;;;4.85;2.70;;;27.30;54.70;;;;;;4914337;29;20688;-55
2023/01/30 06:23:55;;;;;;;4.18;1.90;;;27.30;54.10;;;;;;4913914;29;20224;-51
2023/01/30 06:26:26;;;;;;;3.97;2.17;;;27.30;54.10;;;;;;4914139;29;20624;-53
2023/01/30 06:28:57;;;;;;;5.28;2.00;;;27.30;54.10;;;;;;4915809;29;20224;-53
2023/01/30 06:31:27;;;;;;;3.78;2.15;;;27.30;54.10;;;;;;4917324;29;20200;-53
2023/01/30 06:34:00;;;;;;;4.72;2.10;;;27.40;54.20;;;;;;4917561;29;20567;-51
2023/01/30 06:36:32;;;;;;;3.47;2.00;;;27.30;54.10;;;;;;4917295;29;20259;-55
2023/01/30 06:39:03;;;;;;;3.58;2.40;;;27.30;54.10;;;;;;4917030;29;20220;-51
2023/01/30 06:41:34;;;;;;;3.35;2.30;;;27.30;54.10;;;;;;4916510;29;20196;-50
2023/01/30 06:44:04;;;;;;;3.17;1.85;;;27.30;54.10;;;;;;4916011;29;20383;-49
2023/01/30 06:46:35;;;;;;;3.83;2.42;;;27.30;54.10;;;;;;4917459;29;20208;-47
2023/01/30 06:49:06;;;;;;;3.45;1.95;;;27.30;54.10;;;;;;4917407;29;20599;-51
2023/01/30 06:51:38;;;;;;;4.57;1.90;;;27.30;54.10;;;;;;4917188;29;20652;-48
2023/01/30 06:54:09;;;;;;;2.95;2.10;;;27.30;54.10;;;;;;4916206;29;20204;-51
2023/01/30 06:56:39;;;;;;;3.10;1.88;;;27.30;54.10;;;;;;4916988;29;20207;-54
2023/01/30 06:59:10;;;;;;;3.70;1.98;;;27.30;54.10;;;;;;4917346;29;20568;-49
2023/01/30 07:01:41;;;;;;;2.88;2.10;;;27.20;54.10;;;;;;4916282;29;20216;-52
2023/01/30 07:04:11;;;;;;;3.67;2.00;;;27.30;54.10;;;;;;4916153;29;20243;-51
2023/01/30 07:06:45;;;;;;;3.38;2.22;;;27.20;54.10;;;;;;4916798;29;20207;-47
2023/01/30 07:09:16;;;;;;;4.53;2.00;;;27.20;54.10;;;;;;4916685;29;20224;-50
2023/01/30 07:11:47;;;;;;;3.53;1.90;;;27.20;54.10;;;;;;4916814;29;20696;-50
2023/01/30 07:14:18;;;;;;;2.75;1.80;;;27.20;54.10;;;;;;4916856;29;20201;-50
2023/01/30 07:16:48;;;;;;;3.47;2.17;;;27.20;54.10;;;;;;4916933;29;20216;-49
2023/01/30 07:19:19;;;;;;;3.58;2.15;;;27.20;54.10;;;;;;4916785;29;20235;-50
2023/01/30 07:21:52;;;;;;;4.32;2.28;;;27.20;54.10;;;;;;4916967;29;20204;-50
2023/01/30 07:24:22;;;;;;;4.38;2.35;;;27.20;54.10;;;;;;4916603;29;20255;-51
2023/01/30 07:26:53;;;;;;;2.70;2.20;;;27.20;54.10;;;;;;4916699;29;20201;-51
2023/01/30 07:29:24;;;;;;;3.28;1.90;;;27.10;54.00;;;;;;4916362;29;20235;-50
2023/01/30 07:31:55;;;;;;;3.25;2.20;;;27.10;54.10;;;;;;4916801;29;20212;-48
2023/01/30 07:34:26;;;;;;;2.85;1.98;;;27.10;54.20;;;;;;4916482;29;20211;-51
2023/01/30 07:36:58;;;;;;;3.33;2.20;;;27.10;54.00;;;;;;4916147;29;20677;-49
2023/01/30 07:39:29;;;;;;;3.28;2.05;;;27.10;54.10;;;;;;4915016;29;20225;-51
2023/01/30 07:42:01;;;;;;;2.55;2.08;;;27.10;54.10;;;;;;4916321;29;20591;-51
2023/01/30 07:44:32;;;;;;;5.70;2.30;;;27.10;54.10;;;;;;4916217;29;20232;-51
2023/01/30 07:47:03;;;;;;;2.45;1.88;;;27.00;54.10;;;;;;4916402;29;20224;-51
2023/01/30 07:49:34;;;;;;;3.30;1.90;;;27.10;54.10;;;;;;4915898;29;20208;-49
2023/01/30 07:52:06;;;;;;;2.80;2.00;;;27.00;54.10;;;;;;4916719;29;20200;-64
2023/01/30 07:54:37;;;;;;;5.78;2.63;;;27.00;54.10;;;;;;4915522;29;20200;-58
2023/01/30 07:57:08;;;;;;;4.85;2.60;;;27.00;54.80;;;;;;4916101;29;20215;-56
2023/01/30 07:59:38;;;;;;;5.07;2.25;;;26.90;55.20;;;;;;4915989;29;20200;-53
2023/01/30 08:02:10;;;;;;;5.85;2.55;;;26.80;55.40;;;;;;4915132;29;20664;-54
2023/01/30 08:04:41;;;;;;;4.07;2.40;;;26.80;55.50;;;;;;4915282;29;20644;-53
2023/01/30 08:07:14;;;;;;;4.28;2.47;;;26.70;55.70;;;;;;4915386;29;20211;-49
2023/01/30 08:09:44;;;;;;;5.43;2.35;;;26.70;55.90;;;;;;4915217;29;20197;-50
2023/01/30 08:12:15;;;;;;;5.38;2.70;;;26.60;55.90;;;;;;4914947;29;20192;-52
2023/01/30 08:14:46;;;;;;;3.35;2.53;;;26.60;55.90;;;;;;4915230;29;20196;-51
2023/01/30 08:17:16;;;;;;;4.30;2.45;;;26.60;56.60;;;;;;4915694;29;20208;-49
2023/01/30 08:19:47;;;;;;;3.17;2.20;;;26.60;56.10;;;;;;4915812;29;20660;-50
2023/01/30 08:22:20;;;;;;;6.53;2.65;;;26.50;56.00;;;;;;4915531;29;20200;-49
2023/01/30 08:24:50;;;;;;;5.15;2.80;;;26.50;55.90;;;;;;4910241;29;20233;-52
2023/01/30 08:27:21;;;;;;;2.38;2.17;;;26.50;56.10;;;;;;4908238;29;20251;-50
2023/01/30 08:29:52;;;;;;;5.85;2.80;;;26.50;55.90;;;;;;4914918;29;20204;-54
2023/01/30 08:32:22;;;;;;;4.00;2.20;;;26.50;55.80;;;;;;4895676;29;20217;-56
2023/01/30 08:34:53;;;;;;;4.07;2.47;;;26.50;55.80;;;;;;4904167;29;20197;-53
2023/01/30 08:37:25;;;;;;;2.72;2.17;;;26.50;55.70;;;;;;4915345;29;20782;-53
2023/01/30 08:39:56;;;;;;;4.10;2.40;;;26.50;55.60;;;;;;4914538;29;20196;-52
2023/01/30 08:42:27;;;;;;;3.92;2.25;;;26.50;55.60;;;;;;4911159;29;20193;-51
2023/01/30 08:44:57;;;;;;;3.10;2.40;;;26.50;55.50;;;;;;4910510;29;20222;-51
2023/01/30 08:47:28;;;;;;;2.90;2.13;;;26.50;55.50;;;;;;4914759;29;20715;-53
2023/01/30 08:49:59;;;;;;;4.30;2.30;;;26.50;55.40;;;;;;4913316;29;20204;-49
2023/01/30 08:52:31;;;;;;;2.80;2.05;;;26.50;55.30;;;;;;4913514;29;20200;-52
2023/01/30 08:55:02;;;;;;;4.07;2.22;;;26.50;55.30;;;;;;4914402;29;20579;-54
2023/01/30 08:57:33;;;;;;;2.97;2.33;;;26.40;55.20;;;;;;4914522;29;20220;-54
2023/01/30 09:00:04;;;;;;;3.17;2.35;;;26.40;55.20;;;;;;4914272;29;20565;-54
2023/01/30 09:02:35;;;;;;;2.38;2.10;;;26.40;55.20;;;;;;4914624;29;20207;-51
2023/01/30 09:05:06;;;;;;;3.00;2.35;;;26.40;55.20;;;;;;4914170;29;20234;-51
2023/01/30 09:07:38;;;;;;;2.35;2.15;;;26.40;55.10;;;;;;4913709;29;20220;-55
2023/01/30 09:10:10;;;;;;;2.60;2.40;;;26.40;55.10;;;;;;4914289;29;20215;-55
2023/01/30 09:12:40;;;;;;;3.85;2.40;;;26.40;55.10;;;;;;4913914;29;20208;-51
2023/01/30 09:15:12;;;;;;;2.17;2.00;;;26.30;55.00;;;;;;4913887;29;20201;-53
2023/01/30 09:17:43;;;;;;;2.42;2.22;;;26.30;55.00;;;;;;4914301;29;20224;-53
2023/01/30 09:20:15;;;;;;;3.00;2.70;;;26.30;55.00;;;;;;4909614;29;20200;-56
2023/01/30 09:22:48;;;;;;;3.92;2.53;;;26.30;55.00;;;;;;4913380;29;20699;-54
2023/01/30 09:25:19;;;;;;;2.97;2.40;;;26.30;54.90;;;;;;4913033;29;20263;-52
2023/01/30 09:27:51;;;;;;;3.60;2.38;;;26.30;54.90;;;;;;4912717;29;20728;-52
2023/01/30 09:30:22;;;;;;;2.65;2.42;;;26.20;54.80;;;;;;4913302;29;20212;-52
2023/01/30 09:32:53;;;;;;;2.05;1.92;;;26.20;54.80;;;;;;4914048;29;20541;-54
2023/01/30 09:35:24;;;;;;;3.25;2.70;;;26.20;54.80;;;;;;4913214;29;20204;-51
2023/01/30 09:37:57;;;;;;;2.67;2.13;;;26.20;54.80;;;;;;4914110;29;20239;-51
2023/01/30 09:40:31;;;;;;;2.67;2.00;;;26.20;54.80;;;;;;4914269;29;20679;-53
2023/01/30 09:43:32;;;;;;;2.40;2.20;;;26.20;54.80;;;;;;4913854;29;20204;-55
2023/01/30 09:46:16;;;;;;;3.45;2.50;;;26.20;54.80;;;;;;4913581;29;20235;-53
2023/01/30 09:48:57;;;;;;;3.15;2.40;;;26.10;54.70;;;;;;4913716;29;20231;-52
2023/01/30 09:51:49;;;;;;;2.42;2.20;;;26.10;54.70;;;;;;4914045;29;20204;-53
2023/01/30 09:54:33;;;;;;;2.78;2.38;;;26.10;54.70;;;;;;4912564;29;20204;-54
2023/01/30 09:57:15;;;;;;;2.50;2.30;;;26.10;54.70;;;;;;4913068;29;20204;-57
2023/01/30 10:00:03;;;;;;;3.30;2.70;;;26.10;54.70;;;;;;4913439;29;20200;-55
2023/01/30 10:02:49;;;;;;;2.80;2.50;;;26.00;54.60;;;;;;4912190;29;20205;-54
2023/01/30 10:05:20;;;;;;;2.47;2.10;;;26.00;54.60;;;;;;4917210;29;20235;-55
2023/01/30 10:08:06;;;;;;;2.40;2.20;;;26.00;54.70;;;;;;4917535;29;20219;-54
2023/01/30 10:10:54;;;;;;;2.60;2.30;;;26.00;54.60;;;;;;4917037;29;20672;-52
2023/01/30 10:13:46;;;;;;;2.40;2.20;;;26.00;54.60;;;;;;4916608;29;20204;-51
2023/01/30 10:16:20;;;;;;;2.53;2.33;;;26.00;54.70;;;;;;4917079;29;20208;-53
2023/01/30 10:19:14;;;;;;;2.17;2.03;;;25.90;54.60;;;;;;4915101;29;20283;-53
2023/01/30 10:21:51;;;;;;;2.88;2.67;;;25.90;54.60;;;;;;4915899;29;20203;-50
2023/01/30 10:24:38;;;;;;;2.35;2.15;;;25.90;54.60;;;;;;4917005;29;20712;-54
2023/01/30 10:27:16;;;;;;;2.40;2.22;;;25.90;54.60;;;;;;4898529;29;20248;-53
2023/01/30 10:29:50;;;;;;;2.70;2.45;;;25.90;54.60;;;;;;4900255;29;20782;-54
2023/01/30 10:32:25;;;;;;;2.22;2.03;;;25.90;54.60;;;;;;4916644;29;20211;-53
2023/01/30 10:34:59;;;;;;;2.40;2.20;;;25.90;54.50;;;;;;4916928;29;20211;-53
2023/01/30 10:37:34;;;;;;;2.45;2.25;;;25.90;54.60;;;;;;4916539;29;20232;-51
2023/01/30 10:40:15;;;;;;;2.65;2.33;;;25.80;54.50;;;;;;4916823;29;20708;-53
2023/01/30 10:42:54;;;;;;;2.38;2.17;;;25.80;54.50;;;;;;4915877;29;20310;-54
2023/01/30 10:45:30;;;;;;;2.90;2.60;;;25.80;54.50;;;;;;4915892;29;20220;-52
2023/01/30 10:48:13;;;;;;;2.28;2.13;;;25.80;54.50;;;;;;4916632;29;20227;-53
2023/01/30 10:50:52;;;;;;;2.55;2.35;;;25.80;54.50;;;;;;4917310;29;20196;-53
2023/01/30 10:53:30;;;;;;;2.35;2.15;;;25.80;54.50;;;;;;4915408;29;20215;-54
2023/01/30 10:56:07;;;;;;;2.55;2.40;;;25.70;54.50;;;;;;4925392;29;20214;-48
2023/01/30 10:58:46;;;;;;;2.92;2.20;;;25.70;54.50;;;;;;4935433;29;20223;-53
2023/01/30 11:01:22;;;;;;;2.60;2.40;;;25.70;54.50;;;;;;4935954;29;20297;-55
2023/01/30 11:03:55;;;;;;;2.30;2.10;;;25.70;54.50;;;;;;4935887;29;20199;-55
2023/01/30 11:06:27;;;;;;;2.33;2.17;;;25.70;54.50;;;;;;4935413;29;20231;-49
2023/01/30 11:08:59;;;;;;;2.80;2.50;;;25.70;54.50;;;;;;4935603;29;20634;-54
2023/01/30 11:11:34;;;;;;;2.13;2.03;;;25.70;54.50;;;;;;4935769;29;20231;-52
2023/01/30 11:14:09;;;;;;;2.55;2.30;;;25.60;54.40;;;;;;4934948;29;20603;-53
2023/01/30 11:16:47;;;;;;;2.60;2.40;;;25.60;54.40;;;;;;4919303;29;20211;-53
2023/01/30 11:19:20;;;;;;;2.63;2.33;;;25.60;54.40;;;;;;4906446;29;20219;-51
2023/01/30 11:21:52;;;;;;;3.25;2.60;;;25.60;54.40;;;;;;4905919;29;20205;-48
2023/01/30 11:24:25;;;;;;;3.05;2.75;;;25.60;54.40;;;;;;4903650;29;20201;-55
2023/01/30 11:26:56;;;;;;;3.50;2.38;;;25.60;54.40;;;;;;4897457;29;20705;-51
2023/01/30 11:29:33;;;;;;;2.85;2.35;;;25.60;54.40;;;;;;4897628;29;20236;-52
2023/01/30 11:32:06;;;;;;;2.70;2.45;;;25.50;54.40;;;;;;4897778;29;20200;-54
2023/01/30 11:34:37;;;;;;;2.70;2.50;;;25.50;54.40;;;;;;4897274;29;20211;-58
2023/01/30 11:37:27;;;;;;;2.88;2.67;;;25.50;54.50;;;;;;4897617;29;20703;-53
2023/01/30 11:39:57;;;;;;;2.53;2.33;;;25.50;54.50;;;;;;4897329;29;20215;-53
2023/01/30 11:42:32;;;;;;;2.60;2.40;;;25.50;54.50;;;;;;4897238;29;20205;-53
2023/01/30 11:45:04;;;;;;;2.33;2.13;;;25.50;54.50;;;;;;4899707;29;20207;-52
2023/01/30 11:47:35;;;;;;;2.60;2.40;;;25.50;54.50;;;;;;4916135;29;20228;-53
2023/01/30 11:50:06;;;;;;;2.45;2.25;;;25.50;54.50;;;;;;4916976;29;20207;-51
2023/01/30 11:52:40;;;;;;;2.70;2.50;;;25.50;54.50;;;;;;4916216;29;20204;-53
2023/01/30 11:55:15;;;;;;;3.13;2.83;;;25.50;54.50;;;;;;4915726;29;20204;-53
2023/01/30 11:57:49;;;;;;;3.38;2.25;;;25.40;54.50;;;;;;4915770;29;20230;-51
2023/01/30 12:00:24;;;;;;;2.60;2.40;;;25.40;54.50;;;;;;4915766;29;20205;-53
2023/01/30 12:02:58;;;;;;;2.58;2.30;;;25.40;54.50;;;;;;4915609;29;20204;-50
2023/01/30 12:05:35;;;;;;;2.58;2.38;;;25.40;54.50;;;;;;4915792;29;20240;-53
2023/01/30 12:08:22;;;;;;;2.58;2.33;;;25.40;54.50;;;;;;4915092;29;20603;-49
2023/01/30 12:10:55;;;;;;;3.10;2.55;;;25.30;54.50;;;;;;4915547;29;20235;-50
2023/01/30 12:13:32;;;;;;;2.55;2.35;;;25.30;54.50;;;;;;4915821;29;20627;-49
2023/01/30 12:16:18;;;;;;;2.60;2.40;;;25.30;54.50;;;;;;4915496;29;20203;-52
2023/01/30 12:18:58;;;;;;;2.53;2.33;;;25.30;54.50;;;;;;4914781;29;20220;-53
2023/01/30 12:21:38;;;;;;;2.63;2.42;;;25.30;54.50;;;;;;4915236;29;20264;-52
2023/01/30 12:24:21;;;;;;;2.88;2.58;;;25.30;54.50;;;;;;4915138;29;20208;-52
2023/01/30 12:26:56;;;;;;;2.83;2.60;;;25.30;54.50;;;;;;4915169;29;20230;-51
2023/01/30 12:29:32;;;;;;;2.58;2.38;;;25.30;54.50;;;;;;4915519;29;20228;-48
2023/01/30 12:32:12;;;;;;;2.40;2.20;;;25.30;54.50;;;;;;4915721;29;20567;-53
2023/01/30 12:34:45;;;;;;;3.40;2.70;;;25.30;54.50;;;;;;4915616;29;20661;-53
2023/01/30 12:37:33;;;;;;;2.85;2.65;;;25.30;54.50;;;;;;4915193;29;20204;-53
2023/01/30 12:40:10;;;;;;;2.85;2.65;;;25.30;54.50;;;;;;4915055;29;20211;-51
2023/01/30 12:43:07;;;;;;;2.40;2.20;;;25.30;54.50;;;;;;4915414;29;20643;-54
2023/01/30 12:45:42;;;;;;;2.67;2.47;;;25.20;54.40;;;;;;4915081;29;20744;-51
2023/01/30 12:48:38;;;;;;;2.25;2.15;;;25.20;54.40;;;;;;4915290;29;20228;-56
2023/01/30 12:51:21;;;;;;;2.35;2.15;;;25.20;54.40;;;;;;4915426;29;20215;-54
2023/01/30 12:54:00;;;;;;;2.83;2.63;;;25.20;54.40;;;;;;4914946;29;20200;-53
2023/01/30 12:56:48;;;;;;;2.65;2.42;;;25.20;55.10;;;;;;4915296;29;20237;-55
2023/01/30 12:59:24;;;;;;;2.50;2.30;;;25.20;54.50;;;;;;4914996;29;20220;-55
2023/01/30 13:02:09;;;;;;;3.80;2.60;;;25.20;54.50;;;;;;4914308;29;20195;-51
2023/01/30 13:04:55;;;;;;;2.42;2.33;;;25.10;54.40;;;;;;4915119;29;20204;-50
2023/01/30 13:07:33;;;;;;;2.65;2.42;;;25.10;54.40;;;;;;4914443;29;20227;-53
2023/01/30 13:10:16;;;;;;;2.45;2.30;;;25.10;54.30;;;;;;4914594;29;20231;-56
2023/01/30 13:12:52;;;;;;;2.90;2.70;;;25.10;54.40;;;;;;4914973;29;20208;-52
2023/01/30 13:15:28;;;;;;;2.45;2.25;;;25.10;54.40;;;;;;4915101;29;20203;-54
2023/01/30 13:18:09;;;;;;;2.60;2.40;;;25.10;54.40;;;;;;4914596;29;20230;-54
2023/01/30 13:20:53;;;;;;;2.72;2.53;;;25.10;54.40;;;;;;4914732;29;20204;-54
2023/01/30 13:23:33;;;;;;;2.42;2.22;;;25.10;54.40;;;;;;4914270;29;20356;-52
2023/01/30 13:26:07;;;;;;;2.72;2.53;;;25.10;54.40;;;;;;4914552;29;20270;-56
2023/01/30 13:28:41;;;;;;;2.63;2.42;;;25.00;54.40;;;;;;4914063;29;20228;-55
2023/01/30 13:31:16;;;;;;;4.05;2.60;;;25.00;54.40;;;;;;4914428;29;20204;-56